Euless, TX (76039)

7:36 PM CDT on October 20, 2014 (GMT -0500)
River Forest | Change Station
CLOSE
Current Station
Personal Weather Station
Location: Bedford, TX
Elevation: 594 ft
Nearby Weather Stations

Elev 594 ft 32.85 °N, 97.12 °W | Updated 3 minutes ago

Partly Cloudy
Partly Cloudy
75.0 °F
Feels Like 73 °F
N
0.0
Wind Variable Wind from East

Today
High -- | Low -- °F
--% Chance of Precip.
Yesterday
High -- | Low -- °F
Precip. -- in
7:36 AM 6:49 PM
Waning Crescent, 8% visible
Pressure 29.99 in
Visibility 10.0 miles
Clouds Mostly Cloudy 30000 ft
Heat Index 73 °F
Dew Point 74 °F
Humidity 96%
Rainfall 0.00 in
Snow Depth Not available.
UV 0 out of 12
Pollen 6.20 out of 12
PM2.5 Moderate
Flu Activity Sporadic
METAR KDFW 202353Z 12006KT 10SM BKN300 24/15 A3000 RMK AO2 SLP155 T02390150 10278 20239 55000

More Conditions Fewer Conditions

Pressure 29.99 in
Visibility 10.0 miles
Clouds Mostly Cloudy 30000 ft
Heat Index 73 °F
Dew Point 74 °F
Humidity 96%
Rainfall 0.00 in
Snow Depth Not available.
UV 0 out of 12
Pollen 6.20 out of 12
PM2.5 Moderate
Flu Activity Sporadic
METAR KDFW 202353Z 12006KT 10SM BKN300 24/15 A3000 RMK AO2 SLP155 T02390150 10278 20239 55000

More Conditions Fewer Conditions

10-Day Weather Forecast

Almanac

Astronomy

Oct. 20, 2014 Rise Set
Actual Time 7:36 AM CDT 6:49 PM CDT
Civil Twilight 7:11 AM CDT 7:14 PM CDT
Nautical Twilight 6:42 AM CDT 7:43 PM CDT
Astronomical Twilight 6:13 AM CDT 8:11 PM CDT
Moon 4:35 AM CDT (10/20) 5:04 PM CDT (10/20)
Length of Visible Light 12h 03m
Length of Day
11h 13m
Tomorrow will be 1m 54s shorter.
Waning Crescent, 8% of the Moon is Illuminated
Today
Waning Crescent
Oct 23
New
Oct 30
First Quarter
Nov 6
Full
Nov 14
Last Quarter

Today's Extremes

State Highs State Lows

Community

WunderPhotos

Upload Photos

1,763,566 photos uploaded!

Nearby

Air Quality

  Air Quality AQ Index Pollutant
Yesterday Good
PM2.5
Yesterday Good
OZONE
Current Moderate
PM2.5
Monday Good
OZONE
Monday Good
PM10
Tuesday Moderate
OZONE
Tuesday Good
PM10
Wednesday Moderate
OZONE
Wednesday Good
PM10
Thursday Moderate
OZONE
Thursday Good
PM10

Snow Depth

Station Depth Elevation
No new snow has been reported.

Earthquake Activity

City Distance Mag. Time & Date
No recent earthquake activity has been reported nearby.
Minimum magnitude displayed is 2.5.

Coastal Water Temperatures

Place Temperature
No Stations Reporting

Nearby Weather Stations